• Join FlightAware (Why Join?)
  • Login
  • US Flag 
09:31AM EST


 

Airport Tracker/Info


-or-


 

Live Flight TrackerFlight Track Log ✈ FLG3432 ✈ 25-Jun-2013 ✈ KSLC - KDFW

Flight Track Log - Related Links

Times and Time Zones

All times are in EDT time to prevent confusion due to time zone crossing. See the FLG3432 flight status page for this flight to view local times or setup timezone preferences in your user account.

Time Position Orientation Groundspeed Altitude Reporting Facility
EDT Latitude Longitude Course Direction KTS MPH feet Rate Location/Type
07:38PM 40.8158 -111.9819 163° South 181 208 4,900  Level Salt Lake Center
07:38PM 40.8664 -111.9875 355° North 190 219 6,200 1,500 Climbing Salt Lake Center
07:40PM 40.9319 -111.9933 356° North 234 269 7,900 1,740 Climbing Salt Lake Center
07:40PM 40.9997 -111.9986 357° North 260 299 9,600 1,620 Climbing Salt Lake Center
07:41PM 41.1237 -111.7947 108° East  Level FlightAware Approximate
07:41PM 41.0228 -111.9681 45° Northeast 277 319 10,400  Level Salt Lake Center
07:42PM 41.0250 -111.7259 163° South  Level FlightAware Approximate
07:42PM 40.9911 -111.8667 112° Southeast 278 320 12,100  Level Salt Lake Center
07:43PM 40.9114 -111.6791 163° South  Level FlightAware Approximate
07:43PM 40.9344 -111.7806 131° Southeast 324 373 13,000  Level Salt Lake Center
07:44PM 40.8694 -111.6800 131° Southeast 359 413 14,800 1,440 Climbing Salt Lake Center
07:45PM 40.8006 -111.5744 131° Southeast 379 436 16,000 1,500 Climbing Salt Lake Center
07:46PM 40.7133 -111.4392 130° Southeast 402 463 18,000 1,740 Climbing Salt Lake Center
07:47PM 40.6636 -111.3036 116° Southeast 416 479 19,700 1,380 Climbing Salt Lake Center
07:48PM 40.6222 -111.1606 111° Southeast 417 480 20,900 1,260 Climbing Salt Lake Center
07:49PM 40.5786 -111.0119 111° Southeast 430 495 22,300 1,260 Climbing Salt Lake Center
07:50PM 40.5336 -110.8606 111° Southeast 443 510 23,600 1,080 Climbing Salt Lake Center
07:51PM 40.4889 -110.7075 111° Southeast 450 518 24,600 960 Climbing Salt Lake Center
07:52PM 40.4397 -110.5428 111° Southeast 459 528 25,600 960 Climbing Salt Lake Center
07:53PM 40.3539 -110.3894 126° Southeast 470 541 26,600 1,020 Climbing Salt Lake Center
07:54PM 40.2650 -110.2761 136° Southeast 468 539 27,800 1,200 Climbing Salt Lake Center
07:55PM 40.1606 -110.1436 136° Southeast 470 541 29,200 1,200 Climbing Salt Lake Center
07:56PM 40.0869 -110.0106 126° Southeast 471 542 30,300 1,260 Climbing Salt Lake Center
07:57PM 40.0039 -109.8539 125° Southeast 471 542 31,800 1,260 Climbing Salt Lake Center
07:59PM 39.9333 -109.7217 125° Southeast 466 536 32,900 780 Climbing Salt Lake Center
08:00PM 39.8633 -109.5883 124° Southeast 466 536 33,500 720 Climbing Salt Lake Center
08:01PM 39.7797 -109.4331 125° Southeast 470 541 34,400 780 Climbing Salt Lake Center
08:01PM 39.7203 -109.3208 125° Southeast 470 541 35,000 300 Climbing Denver Center
08:02PM 39.6342 -109.1631 125° Southeast 482 555 35,000  Level Denver Center
08:03PM 39.5589 -109.0253 125° Southeast 494 568 35,000  Level Denver Center
08:04PM 39.4719 -108.8647 125° Southeast 496 571 35,000  Level Denver Center
08:06PM 39.3967 -108.7264 125° Southeast 499 574 35,000  Level Denver Center
08:07PM 39.3097 -108.5653 125° Southeast 493 567 35,000  Level Denver Center
08:08PM 39.2342 -108.4269 125° Southeast 494 568 35,000  Level Denver Center
08:09PM 39.1469 -108.2664 125° Southeast 482 555 35,000  Level Denver Center
08:10PM 39.0700 -108.1294 126° Southeast 491 565 35,000  Level Denver Center
08:11PM 38.9811 -107.9722 126° Southeast 487 560 35,000  Level Denver Center
08:12PM 38.9056 -107.8389 126° Southeast 482 555 35,000  Level Denver Center
08:13PM 38.8297 -107.7047 126° Southeast 483 556 35,000 120 Level Denver Center
08:14PM 38.7408 -107.5467 126° Southeast 489 563 35,300 420 Climbing Denver Center
08:15PM 38.6631 -107.4108 126° Southeast 493 567 35,900 780 Climbing Denver Center
08:16PM 38.5736 -107.2539 126° Southeast 491 565 37,000 480 Climbing Denver Center
08:17PM 38.4928 -107.1133 126° Southeast 486 559 37,000  Level Denver Center
08:18PM 38.4119 -106.9717 126° Southeast 493 567 37,000  Level Denver Center
08:19PM 38.3303 -106.8256 125° Southeast 495 570 37,000  Level Denver Center
08:20PM 38.2539 -106.6872 125° Southeast 497 572 37,000  Level Denver Center
08:21PM 38.1642 -106.5286 126° Southeast 494 568 37,000  Level Denver Center
08:22PM 38.0919 -106.4017 126° Southeast 496 571 37,000  Level Denver Center
08:23PM 38.0006 -106.2378 125° Southeast 489 563 37,000  Level Denver Center
08:24PM 37.9242 -106.1058 126° Southeast 486 559 37,000  Level Denver Center
08:25PM 37.8272 -105.9650 131° Southeast 476 548 37,000  Level Denver Center
08:26PM 37.7156 -105.8833 150° Southeast 483 556 37,000  Level Denver Center
08:27PM 37.5892 -105.7908 150° Southeast 474 545 37,000  Level Denver Center
08:28PM 37.4717 -105.7053 150° Southeast 480 552 37,000  Level Denver Center
08:29PM 37.3614 -105.6231 149° Southeast 481 554 37,000  Level Denver Center
08:30PM 37.2675 -105.4881 131° Southeast 482 555 37,000  Level Denver Center
08:31PM 37.1953 -105.3481 123° Southeast 493 567 37,000  Level Denver Center
08:32PM 37.1111 -105.1839 123° Southeast 501 577 37,000  Level Denver Center
08:33PM 37.0375 -105.0422 123° Southeast 506 582 37,000  Level Denver Center
08:34PM 36.9547 -104.8808 123° Southeast 499 574 37,000  Level Denver Center
08:35PM 36.8853 -104.7408 122° Southeast 495 570 37,000  Level Denver Center
08:36PM 36.8114 -104.5706 118° Southeast 499 574 37,000  Level Denver Center
08:38PM 36.7381 -104.4039 119° Southeast 496 571 37,000  Level Albuquerque Center
08:39PM 36.6700 -104.2506 119° Southeast 495 570 37,000  Level Albuquerque Center
08:40PM 36.6017 -104.1003 119° Southeast 494 568 37,000  Level Albuquerque Center
08:41PM 36.5356 -103.9500 119° Southeast 492 566 37,000  Level Albuquerque Center
08:42PM 36.4678 -103.7989 119° Southeast 493 567 37,000  Level Albuquerque Center
08:43PM 36.4000 -103.6472 119° Southeast 496 571 37,000  Level Albuquerque Center
08:44PM 36.3322 -103.4978 119° Southeast 493 567 37,000  Level Albuquerque Center
08:45PM 36.2647 -103.3481 119° Southeast 492 566 37,000  Level Albuquerque Center
08:46PM 36.1964 -103.1981 119° Southeast 494 568 37,000  Level Albuquerque Center
08:47PM 36.1289 -103.0517 120° Southeast 488 562 37,000  Level Albuquerque Center
08:48PM 36.0589 -102.8994 120° Southeast 490 564 37,000  Level Albuquerque Center
08:49PM 35.9928 -102.7533 119° Southeast 488 562 37,000  Level Albuquerque Center
08:50PM 35.9111 -102.5808 120° Southeast 487 560 37,000  Level Albuquerque Center
08:51PM 35.8442 -102.4353 120° Southeast 487 560 37,000  Level Albuquerque Center
08:52PM 35.7761 -102.2922 120° Southeast 486 559 37,000  Level Albuquerque Center
08:53PM 35.7083 -102.1469 120° Southeast 488 562 37,000  Level Albuquerque Center
08:54PM 35.6406 -102.0036 120° Southeast 486 559 37,000  Level Albuquerque Center
08:55PM 35.5728 -101.8594 120° Southeast 486 559 37,000  Level Albuquerque Center
08:56PM 35.5039 -101.7117 120° Southeast 485 558 37,000  Level Albuquerque Center
08:57PM 35.4306 -101.5617 121° Southeast 488 562 37,000  Level Albuquerque Center
08:58PM 35.3619 -101.4197 121° Southeast 487 560 37,000  Level Albuquerque Center
08:59PM 35.2944 -101.2797 121° Southeast 487 560 37,000  Level Albuquerque Center
09:00PM 35.2250 -101.1372 121° Southeast 487 560 37,000  Level Albuquerque Center
09:01PM 35.1417 -100.9678 121° Southeast 484 557 37,000  Level Albuquerque Center
09:02PM 35.0733 -100.8267 121° Southeast 483 556 37,000  Level Albuquerque Center
09:03PM 35.0050 -100.6872 121° Southeast 482 555 37,000  Level Albuquerque Center
09:04PM 34.9369 -100.5508 121° Southeast 475 547 37,000  Level Albuquerque Center
09:05PM 34.8703 -100.4153 121° Southeast 469 540 37,000  Level Albuquerque Center
09:06PM 34.8008 -100.2758 121° Southeast 472 543 37,000  Level Albuquerque Center
09:07PM 34.7314 -100.1350 121° Southeast 482 555 37,000  Level Albuquerque Center
09:08PM 34.6600 -99.9933 121° Southeast 490 564 37,000  Level Albuquerque Center
09:09PM 34.5917 -99.8564 121° Southeast 480 552 37,000  Level Albuquerque Center
09:10PM 34.5097 -99.6969 122° Southeast 468 539 37,000  Level Albuquerque Center
09:11PM 34.4403 -99.5592 121° Southeast 475 547 37,000  Level Albuquerque Center
09:12PM 34.3700 -99.4206 122° Southeast 482 555 37,000  Level Albuquerque Center
09:13PM 34.2981 -99.2800 122° Southeast 488 562 37,000  Level Albuquerque Center
09:14PM 34.2264 -99.1403 122° Southeast 490 564 37,000 -600 Level Albuquerque Center
09:16PM 34.1322 -98.9667 123° Southeast 475 547 35,700 -1,140 Descending Fort Worth Center
09:17PM 34.0692 -98.8350 120° Southeast 490 564 34,600 -1,200 Descending Fort Worth Center
09:18PM 33.9914 -98.6886 123° Southeast 496 571 33,300 -1,620 Descending Fort Worth Center
09:19PM 33.9156 -98.5547 124° Southeast 496 571 31,400 -2,280 Descending Fort Worth Center
09:20PM 33.8375 -98.4236 126° Southeast 485 558 28,800 -2,520 Descending Fort Worth Center
09:21PM 33.7778 -98.3156 124° Southeast 485 558 26,400 -3,000 Descending Fort Worth Center
09:22PM 33.6869 -98.1647 126° Southeast 475 547 22,800 -3,300 Descending Fort Worth Center
09:23PM 33.6228 -98.0519 124° Southeast 467 537 19,900 -3,000 Descending Fort Worth Center
09:24PM 33.5442 -97.9194 125° Southeast 447 514 16,900 -2,880 Descending Fort Worth Center
09:25PM 33.4797 -97.8094 125° Southeast 420 483 14,200 -2,520 Descending Fort Worth Center
09:26PM 33.4175 -97.7022 125° Southeast 399 459 11,900 -1,800 Descending Fort Worth Center
09:27PM 33.3614 -97.6175 128° Southeast 381 438 10,600 -1,260 Descending Fort Worth Center
09:28PM 33.3031 -97.5378 131° Southeast 336 387 9,400 -1,500 Descending Fort Worth Center
09:29PM 33.2403 -97.4581 133° Southeast 306 352 7,700 -1,500 Descending Fort Worth Center
09:30PM 33.1903 -97.3986 135° Southeast 296 341 6,500 -1,440 Descending Fort Worth Center
09:31PM 33.1333 -97.3167 130° Southeast 265 305 4,800 -1,620 Descending Dallas / Fort Worth TRACON
09:32PM 33.0833 -97.2667 140° Southeast 251 289 3,200 -1,140 Descending Dallas / Fort Worth TRACON
09:33PM 33.0333 -97.2167 140° Southeast 194 223 2,600 -480 Descending Dallas / Fort Worth TRACON
09:34PM 33.0000 -97.1667 128° Southeast 163 188 2,300 -300 Descending Dallas / Fort Worth TRACON